Time;durP1;ratioP1;P1;durP2;ratioP2;P2;SDS_P1;SDS_P2;PMS_P1;PMS_P2;Temp;Humidity;BMP_temperature;BMP_pressure;BME280_temperature;BME280_humidity;BME280_pressure;Samples;Min_cycle;Max_cycle;Signal;HPM_P1;HPM_P2
2021/09/01 00:00:24;;;;;;;8.27;4.37;;;;;;;17.60;58.82;101456.78;6181294;23;20624;-60
2021/09/01 00:02:50;;;;;;;8.17;4.33;;;;;;;17.62;59.10;101465.53;6180007;23;20151;-60
2021/09/01 00:05:15;;;;;;;5.23;4.20;;;;;;;17.64;59.17;101451.81;6181306;23;20205;-60
2021/09/01 00:07:42;;;;;;;8.90;4.77;;;;;;;17.66;58.94;101454.16;6180611;23;20160;-60
2021/09/01 00:10:09;;;;;;;7.27;4.20;;;;;;;17.69;58.89;101456.81;6180700;23;20571;-60
2021/09/01 00:12:35;;;;;;;6.30;4.20;;;;;;;17.68;59.12;101455.28;6180626;23;20748;-60
2021/09/01 00:15:01;;;;;;;8.90;4.47;;;;;;;17.60;59.12;101433.59;6180325;23;20527;-61
2021/09/01 00:17:26;;;;;;;10.07;4.30;;;;;;;17.70;59.12;101449.97;6181218;23;20224;-60
2021/09/01 00:19:52;;;;;;;6.10;3.97;;;;;;;17.66;59.35;101448.56;6180486;23;20170;-60
2021/09/01 00:22:17;;;;;;;8.07;4.20;;;;;;;17.60;59.19;101447.59;6178787;23;20205;-60
2021/09/01 00:24:43;;;;;;;6.50;4.40;;;;;;;17.60;59.30;101448.38;6180297;23;20157;-61
2021/09/01 00:27:08;;;;;;;4.23;3.83;;;;;;;17.63;59.08;101459.44;6181362;23;20490;-60
2021/09/01 00:29:35;;;;;;;6.23;4.17;;;;;;;17.63;59.11;101451.03;6180263;23;20153;-61
2021/09/01 00:32:03;;;;;;;5.13;4.17;;;;;;;17.66;59.16;101454.16;6181142;23;20231;-61
2021/09/01 00:34:28;;;;;;;6.73;4.80;;;;;;;17.63;59.66;101453.84;6179628;23;20195;-61
2021/09/01 00:36:54;;;;;;;7.90;4.63;;;;;;;17.66;59.48;101448.56;6181327;23;20619;-61
2021/09/01 00:39:20;;;;;;;5.57;4.33;;;;;;;17.66;59.08;101449.31;6179761;23;20160;-61
2021/09/01 00:41:45;;;;;;;5.70;3.93;;;;;;;17.27;58.27;101396.84;6180945;23;20153;-61
2021/09/01 00:44:23;;;;;;;6.67;4.37;;;;;;;17.57;59.12;101442.91;6180158;23;20148;-61
2021/09/01 00:46:53;;;;;;;6.83;4.20;;;;;;;17.51;59.27;101437.13;6180824;23;20693;-61
2021/09/01 00:49:19;;;;;;;4.93;4.03;;;;;;;17.49;59.31;101445.22;6179985;23;20162;-61
2021/09/01 00:51:46;;;;;;;10.77;5.00;;;;;;;17.19;58.87;101401.94;6180300;23;20153;-61
2021/09/01 00:54:15;;;;;;;8.10;4.70;;;;;;;17.48;59.01;101448.47;6153903;23;20191;-61
2021/09/01 00:56:52;;;;;;;5.93;4.70;;;;;;;17.44;59.19;101443.00;6179548;23;20195;-61
2021/09/01 00:59:24;;;;;;;8.37;4.60;;;;;;;17.36;59.56;101436.88;6180265;23;20152;-61
2021/09/01 01:01:50;;;;;;;7.87;4.60;;;;;;;16.85;59.59;101388.03;6180200;23;20156;-61
2021/09/01 01:04:16;;;;;;;7.07;4.23;;;;;;;17.12;59.54;101443.44;6181050;23;20160;-61
2021/09/01 01:06:42;;;;;;;9.33;5.17;;;;;;;16.83;59.69;101387.72;6180558;23;20156;-61
2021/09/01 01:09:08;;;;;;;6.90;4.10;;;;;;;17.14;59.75;101441.72;6180411;23;20243;-61
2021/09/01 01:11:33;;;;;;;14.87;5.83;;;;;;;17.03;60.06;101434.97;6179836;23;20163;-60
2021/09/01 01:13:59;;;;;;;13.27;5.30;;;;;;;17.06;59.81;101437.63;6180419;23;20177;-61
2021/09/01 01:16:26;;;;;;;11.63;5.67;;;;;;;17.07;59.89;101444.03;6179967;23;20160;-61
2021/09/01 01:18:52;;;;;;;12.37;5.53;;;;;;;17.06;59.83;101436.88;6180722;23;20161;-61
2021/09/01 01:21:26;;;;;;;11.47;4.90;;;;;;;16.94;60.08;101426.50;6180624;23;20229;-60
2021/09/01 01:23:53;;;;;;;12.50;5.30;;;;;;;16.89;60.91;101436.28;6180169;23;20274;-60
2021/09/01 01:26:19;;;;;;;10.13;5.63;;;;;;;16.55;60.15;101387.97;6153974;23;20242;-61
2021/09/01 01:28:53;;;;;;;13.20;4.73;;;;;;;16.80;60.49;101427.03;6180047;23;20257;-61
2021/09/01 01:31:19;;;;;;;13.03;5.17;;;;;;;16.73;60.08;101413.28;6180299;23;20612;-61
2021/09/01 01:33:44;;;;;;;11.10;4.83;;;;;;;16.87;60.23;101429.56;6179323;23;20188;-61
2021/09/01 01:36:10;;;;;;;9.23;4.60;;;;;;;16.67;60.72;101404.72;6180550;23;20157;-61
2021/09/01 01:38:35;;;;;;;10.57;4.67;;;;;;;16.76;60.71;101429.19;6180400;23;20156;-61
2021/09/01 01:41:01;;;;;;;6.53;4.23;;;;;;;16.71;60.67;101432.56;6180044;23;20162;-61
2021/09/01 01:43:28;;;;;;;9.37;4.10;;;;;;;16.67;60.96;101427.09;6179459;23;20635;-61
2021/09/01 01:45:53;;;;;;;6.67;3.80;;;;;;;16.67;61.08;101429.09;6173559;23;20256;-61
2021/09/01 01:48:19;;;;;;;7.93;4.23;;;;;;;16.26;61.62;101379.78;6152920;23;20240;-61
2021/09/01 01:50:46;;;;;;;5.57;3.90;;;;;;;16.39;62.07;101416.91;6152348;23;20209;-61
2021/09/01 01:53:12;;;;;;;6.50;4.43;;;;;;;16.53;61.16;101430.41;6152301;23;20163;-61
2021/09/01 01:55:37;;;;;;;6.23;3.80;;;;;;;16.42;61.43;101404.03;6151293;23;20173;-61
2021/09/01 01:58:03;;;;;;;7.50;4.53;;;;;;;16.58;61.56;101415.03;6152656;23;20208;-61
2021/09/01 02:00:29;;;;;;;6.53;3.67;;;;;;;16.58;61.47;101417.81;6152169;23;20204;-61
2021/09/01 02:02:54;;;;;;;5.67;4.10;;;;;;;16.64;61.58;101422.41;6152329;23;20153;-61
2021/09/01 02:05:19;;;;;;;6.43;4.53;;;;;;;16.44;61.56;101415.56;6152870;23;20609;-61
2021/09/01 02:07:45;;;;;;;9.40;4.40;;;;;;;16.07;62.01;101368.88;6152965;23;20236;-61
2021/09/01 02:10:11;;;;;;;5.40;4.30;;;;;;;16.56;62.20;101409.13;6151267;23;20499;-61
2021/09/01 02:12:39;;;;;;;5.27;4.27;;;;;;;16.56;62.06;101411.91;6152471;23;20155;-61
2021/09/01 02:15:06;;;;;;;6.80;4.10;;;;;;;16.35;60.70;101368.66;6152044;23;20201;-61
2021/09/01 02:17:32;;;;;;;5.63;4.30;;;;;;;16.67;60.40;101410.31;6153066;23;20159;-60
2021/09/01 02:19:57;;;;;;;5.80;4.10;;;;;;;16.63;60.55;101412.44;6151860;23;20508;-61
2021/09/01 02:22:23;;;;;;;5.87;4.13;;;;;;;16.58;60.66;101400.28;6152080;23;20189;-61
2021/09/01 02:24:49;;;;;;;5.93;4.77;;;;;;;16.29;60.68;101364.13;6150563;23;20881;-60
2021/09/01 02:27:15;;;;;;;6.87;4.37;;;;;;;16.04;60.99;101325.06;6152277;23;20427;-61
2021/09/01 02:29:41;;;;;;;7.00;4.37;;;;;;;16.47;60.50;101389.44;6152092;23;20156;-61
2021/09/01 02:32:07;;;;;;;5.83;4.47;;;;;;;16.54;61.25;101403.22;6151792;23;20154;-61
2021/09/01 02:34:33;;;;;;;5.03;4.07;;;;;;;16.41;60.90;101391.28;6151641;23;20169;-61
2021/09/01 02:36:58;;;;;;;5.77;4.47;;;;;;;16.54;61.01;101403.97;6152115;23;20169;-61
2021/09/01 02:39:25;;;;;;;6.50;4.30;;;;;;;16.60;60.66;101404.94;6152091;23;20149;-61
2021/09/01 02:41:50;;;;;;;4.73;4.17;;;;;;;16.64;60.49;101402.03;6151693;23;20682;-61
2021/09/01 02:44:16;;;;;;;7.30;4.60;;;;;;;16.40;60.18;101365.31;6152270;23;20150;-61
2021/09/01 02:46:41;;;;;;;6.30;4.20;;;;;;;16.75;60.17;101410.84;6175914;23;20192;-61
2021/09/01 02:49:07;;;;;;;7.27;4.10;;;;;;;16.82;60.09;101413.34;6181291;23;20228;-61
2021/09/01 02:51:33;;;;;;;9.53;4.70;;;;;;;16.30;60.08;101334.91;6181175;23;20183;-61
2021/09/01 02:53:59;;;;;;;8.97;4.57;;;;;;;16.63;59.81;101378.06;6181130;23;20173;-61
2021/09/01 02:56:24;;;;;;;6.73;4.17;;;;;;;16.91;59.25;101421.81;6181112;23;20169;-61
2021/09/01 02:58:50;;;;;;;10.80;4.97;;;;;;;16.81;59.72;101395.75;6181615;23;20505;-63
2021/09/01 03:01:15;;;;;;;6.83;4.37;;;;;;;16.88;59.16;101410.75;6181474;23;20153;-63
2021/09/01 03:03:40;;;;;;;18.43;5.57;;;;;;;16.67;59.08;101387.91;6180694;23;20145;-61
2021/09/01 03:06:06;;;;;;;8.87;4.30;;;;;;;16.96;59.43;101410.03;6181538;23;20157;-61
2021/09/01 03:08:32;;;;;;;14.00;4.50;;;;;;;17.00;59.33;101419.84;6182150;23;20225;-61
2021/09/01 03:10:57;;;;;;;14.27;5.33;;;;;;;16.95;59.63;101414.09;6181742;23;20160;-61
2021/09/01 03:13:22;;;;;;;6.43;3.60;;;;;;;16.90;59.55;101407.03;6180200;23;20159;-61
2021/09/01 03:15:48;;;;;;;6.50;3.77;;;;;;;17.01;59.86;101424.22;6181551;23;20506;-61
2021/09/01 03:18:14;;;;;;;6.53;3.87;;;;;;;16.94;59.82;101416.09;6181134;23;20172;-61
2021/09/01 03:20:39;;;;;;;7.23;4.30;;;;;;;16.98;59.88;101416.75;6180879;23;20288;-61
2021/09/01 03:23:05;;;;;;;8.17;4.10;;;;;;;17.04;59.50;101431.72;6181366;23;20153;-61
2021/09/01 03:25:31;;;;;;;10.80;4.37;;;;;;;16.69;59.76;101382.63;6181308;23;20149;-61
2021/09/01 03:27:59;;;;;;;6.37;3.73;;;;;;;16.75;60.10;101392.00;6181369;23;20211;-61
2021/09/01 03:30:26;;;;;;;5.33;3.87;;;;;;;17.02;59.65;101437.00;6181113;23;20160;-60
2021/09/01 03:32:51;;;;;;;4.63;4.00;;;;;;;16.92;60.09;101423.38;6180325;23;20156;-61
2021/09/01 03:35:16;;;;;;;4.77;3.87;;;;;;;16.86;60.07;101430.81;6180709;23;20180;-60
2021/09/01 03:37:42;;;;;;;6.73;4.30;;;;;;;16.70;60.86;101414.22;6182306;23;20661;-61
2021/09/01 03:40:08;;;;;;;4.63;4.00;;;;;;;16.88;60.51;101435.97;6180542;23;20166;-61
2021/09/01 03:42:33;;;;;;;4.40;3.50;;;;;;;16.95;60.73;101442.84;6180893;23;20231;-61
2021/09/01 03:44:59;;;;;;;6.00;4.47;;;;;;;17.02;60.20;101439.81;6179998;23;20149;-60
2021/09/01 03:47:24;;;;;;;4.77;4.07;;;;;;;16.76;60.33;101390.00;6181951;23;20153;-61
2021/09/01 03:49:50;;;;;;;5.93;4.20;;;;;;;17.07;60.33;101435.63;6180890;23;20184;-61
2021/09/01 03:52:15;;;;;;;5.17;3.90;;;;;;;16.94;60.09;101402.09;6180332;23;20195;-61
2021/09/01 03:54:41;;;;;;;5.87;3.70;;;;;;;17.24;60.22;101436.94;6180817;23;20173;-61
2021/09/01 03:57:06;;;;;;;5.97;4.50;;;;;;;17.31;59.98;101436.69;6180296;23;20164;-63
2021/09/01 03:59:32;;;;;;;5.33;4.00;;;;;;;17.16;59.74;101386.03;6180987;23;20586;-63
2021/09/01 04:01:58;;;;;;;5.90;4.00;;;;;;;17.50;59.45;101432.00;6178431;23;20161;-61
2021/09/01 04:04:23;;;;;;;4.97;3.63;;;;;;;17.36;59.41;101411.66;6181097;23;20156;-61
2021/09/01 04:06:49;;;;;;;6.23;3.87;;;;;;;17.44;59.13;101431.81;6180598;23;20244;-61
2021/09/01 04:09:14;;;;;;;3.90;3.50;;;;;;;17.58;58.96;101445.25;6180581;23;20477;-61
2021/09/01 04:11:40;;;;;;;4.47;3.70;;;;;;;17.59;58.74;101446.81;6180174;23;20187;-61
2021/09/01 04:14:05;;;;;;;5.03;3.60;;;;;;;17.60;59.02;101447.59;6180409;23;20585;-61
2021/09/01 04:16:31;;;;;;;4.83;3.70;;;;;;;17.64;58.88;101449.03;6180791;23;20157;-61
2021/09/01 04:18:56;;;;;;;6.83;3.50;;;;;;;17.45;58.67;101427.00;6181370;23;20600;-61
2021/09/01 04:21:22;;;;;;;5.20;3.83;;;;;;;17.16;58.81;101388.81;6180457;23;20156;-61
2021/09/01 04:23:47;;;;;;;4.07;3.60;;;;;;;17.68;58.78;101467.25;6177510;23;20151;-62
2021/09/01 04:26:13;;;;;;;4.47;3.77;;;;;;;17.48;58.94;101426.06;6180133;23;20483;-62
2021/09/01 04:28:38;;;;;;;3.87;3.47;;;;;;;17.47;58.51;101416.09;6180731;23;20155;-62
2021/09/01 04:31:04;;;;;;;4.13;3.73;;;;;;;17.70;59.00;101477.25;6181230;23;20151;-62
2021/09/01 04:33:29;;;;;;;5.87;3.37;;;;;;;17.71;59.53;101481.59;6179277;23;20645;-62
2021/09/01 04:35:55;;;;;;;4.60;4.20;;;;;;;17.70;59.34;101469.59;6180779;23;20201;-62
2021/09/01 04:38:20;;;;;;;5.23;3.90;;;;;;;17.77;59.39;101477.75;6180445;23;20157;-62
2021/09/01 04:40:46;;;;;;;9.53;5.30;;;;;;;17.86;59.09;101474.19;6181064;23;20160;-62
2021/09/01 04:43:11;;;;;;;11.37;6.17;;;;;;;17.93;59.01;101481.06;6179592;23;20219;-62
2021/09/01 04:45:37;;;;;;;5.77;4.00;;;;;;;17.89;59.36;101482.44;6180344;23;20259;-62
2021/09/01 04:48:03;;;;;;;6.00;3.73;;;;;;;17.90;59.36;101484.00;6180345;23;20144;-62
2021/09/01 04:50:28;;;;;;;5.20;3.80;;;;;;;17.58;59.09;101434.06;6180829;23;20160;-62
2021/09/01 04:52:54;;;;;;;3.90;3.50;;;;;;;17.87;59.58;101479.34;6179766;23;20153;-63
2021/09/01 04:55:19;;;;;;;4.40;3.83;;;;;;;17.96;59.70;101476.53;6174643;23;20535;-63
2021/09/01 04:57:45;;;;;;;4.57;3.70;;;;;;;17.92;60.00;101483.56;6177765;23;20156;-62
2021/09/01 05:00:11;;;;;;;5.23;3.70;;;;;;;17.96;59.56;101487.00;6179905;23;20153;-63
2021/09/01 05:02:38;;;;;;;4.53;3.60;;;;;;;17.96;59.52;101484.19;6179524;23;20206;-62
2021/09/01 05:05:04;;;;;;;5.30;3.57;;;;;;;17.99;59.14;101479.19;6180273;23;20154;-62
2021/09/01 05:07:30;;;;;;;7.90;3.70;;;;;;;18.06;59.58;101482.97;6180671;23;20153;-62
2021/09/01 05:09:55;;;;;;;4.90;3.77;;;;;;;17.93;59.99;101466.28;6180117;23;20160;-62
2021/09/01 05:12:21;;;;;;;6.83;3.77;;;;;;;18.11;59.96;101488.75;6172312;23;20159;-62
2021/09/01 05:14:46;;;;;;;7.13;3.30;;;;;;;18.27;59.75;101484.91;6177291;23;20536;-63
2021/09/01 05:17:12;;;;;;;4.67;3.40;;;;;;;18.42;58.60;101481.06;6179260;23;20160;-62
2021/09/01 05:19:37;;;;;;;4.07;3.30;;;;;;;18.51;58.40;101485.88;6179547;23;20158;-62
2021/09/01 05:22:06;;;;;;;4.17;3.60;;;;;;;18.28;58.40;101431.13;6181894;23;20603;-63
2021/09/01 05:24:52;;;;;;;3.80;3.30;;;;;;;18.71;57.98;101489.03;6181062;23;20180;-62
2021/09/01 05:27:19;;;;;;;5.33;3.90;;;;;;;18.80;58.68;101477.81;6181603;23;20284;-62
2021/09/01 05:29:47;;;;;;;8.47;3.57;;;;;;;18.78;58.39;101474.69;6182195;23;20156;-62
2021/09/01 05:32:22;;;;;;;4.77;3.13;;;;;;;18.88;58.31;101484.69;6180888;23;20153;-62
2021/09/01 05:34:49;;;;;;;4.23;2.73;;;;;;;19.01;58.31;101486.06;6181536;23;20230;-62
2021/09/01 05:37:15;;;;;;;4.23;2.60;;;;;;;19.16;56.86;101478.56;6155236;23;20176;-62
2021/09/01 05:39:43;;;;;;;3.13;2.60;;;;;;;19.31;57.35;101490.75;6181773;23;20188;-62
2021/09/01 05:42:13;;;;;;;6.43;2.63;;;;;;;19.11;56.83;101439.06;6181588;23;20222;-62
2021/09/01 05:44:39;;;;;;;3.63;2.80;;;;;;;19.53;55.95;101487.72;6155681;23;20242;-62
2021/09/01 05:47:09;;;;;;;5.93;2.60;;;;;;;19.64;56.16;101479.53;6180128;23;20267;-62
2021/09/01 05:49:35;;;;;;;5.13;2.47;;;;;;;19.65;55.26;101486.75;6181365;23;20168;-63
2021/09/01 05:52:03;;;;;;;3.73;2.40;;;;;;;19.76;54.79;101479.34;6182355;23;20504;-63
2021/09/01 05:54:29;;;;;;;3.57;2.50;;;;;;;19.88;54.49;101486.03;6181085;23;20545;-62
2021/09/01 05:57:11;;;;;;;2.67;2.17;;;;;;;19.96;54.61;101488.00;6181144;23;20167;-62
2021/09/01 05:59:45;;;;;;;3.63;2.20;;;;;;;20.08;54.86;101475.00;6181291;23;20902;-62
2021/09/01 06:02:21;;;;;;;4.60;2.63;;;;;;;20.25;54.48;101471.31;6180100;23;20144;-62
2021/09/01 06:04:48;;;;;;;4.00;2.57;;;;;;;20.34;53.77;101478.91;6180661;23;20144;-62
2021/09/01 06:07:16;;;;;;;2.40;2.10;;;;;;;20.45;53.56;101476.34;6181865;23;20153;-63
2021/09/01 06:09:43;;;;;;;3.23;2.10;;;;;;;20.60;53.30;101480.78;6180919;23;20475;-62
2021/09/01 06:12:13;;;;;;;4.27;2.07;;;;;;;20.64;52.21;101472.13;6177856;23;20153;-61
2021/09/01 06:14:39;;;;;;;5.37;2.40;;;;;;;20.69;52.18;101474.28;6153251;23;20238;-62
2021/09/01 06:17:04;;;;;;;5.67;2.37;;;;;;;20.64;51.51;101467.28;6180913;23;20157;-61
2021/09/01 06:19:30;;;;;;;4.03;2.40;;;;;;;20.61;51.24;101468.25;6154795;23;20583;-61
2021/09/01 06:21:55;;;;;;;4.30;2.27;;;;;;;20.70;51.14;101468.19;6180996;23;20687;-61
2021/09/01 06:24:21;;;;;;;3.47;1.70;;;;;;;20.62;50.67;101464.16;6181153;23;20157;-61
2021/09/01 06:26:46;;;;;;;3.00;1.90;;;;;;;20.65;50.38;101466.03;6180353;23;20163;-62
2021/09/01 06:29:11;;;;;;;4.10;1.90;;;;;;;20.80;50.82;101464.03;6180425;23;20149;-62
2021/09/01 06:31:39;;;;;;;4.43;1.90;;;;;;;20.87;50.86;101474.16;6179132;23;20153;-62
2021/09/01 06:34:05;;;;;;;4.27;2.10;;;;;;;20.99;50.96;101475.94;6179130;23;20176;-62
2021/09/01 06:36:31;;;;;;;4.63;2.10;;;;;;;21.15;50.29;101478.28;6179295;23;20228;-62
2021/09/01 06:38:56;;;;;;;4.90;1.97;;;;;;;21.19;49.37;101479.66;6180501;23;20149;-61
2021/09/01 06:41:22;;;;;;;3.97;1.63;;;;;;;21.01;48.89;101460.09;6180822;23;20157;-61
2021/09/01 06:43:47;;;;;;;6.80;1.87;;;;;;;21.16;49.14;101479.84;6180011;23;20145;-60
2021/09/01 06:46:12;;;;;;;3.87;1.97;;;;;;;20.98;48.90;101463.13;6180687;23;20197;-61
2021/09/01 06:48:38;;;;;;;2.87;1.50;;;;;;;21.21;49.46;101494.06;6180824;23;20188;-60
2021/09/01 06:51:03;;;;;;;3.37;2.10;;;;;;;21.32;49.25;101482.97;6180987;23;20177;-61
2021/09/01 06:53:29;;;;;;;4.13;2.10;;;;;;;21.45;48.95;101482.69;6179837;23;20156;-61
2021/09/01 06:55:54;;;;;;;3.10;2.10;;;;;;;20.97;48.52;101427.72;6180948;23;20247;-61
2021/09/01 06:58:20;;;;;;;2.87;1.87;;;;;;;21.30;48.42;101488.31;6178609;23;20501;-61
2021/09/01 07:00:45;;;;;;;5.93;2.30;;;;;;;21.37;48.59;101492.78;6179268;23;20235;-60
2021/09/01 07:03:11;;;;;;;4.80;1.97;;;;;;;21.04;48.49;101435.81;6176614;23;20153;-60
2021/09/01 07:05:37;;;;;;;2.90;2.00;;;;;;;21.50;48.58;101482.75;6180554;23;20153;-62
2021/09/01 07:08:17;;;;;;;3.07;1.90;;;;;;;21.42;49.00;101461.09;6179627;23;20208;-60
2021/09/01 07:10:44;;;;;;;5.63;1.90;;;;;;;21.70;47.85;101496.22;6181259;23;20149;-61
2021/09/01 07:13:11;;;;;;;4.70;2.10;;;;;;;21.65;47.49;101479.94;6179144;23;20156;-61
2021/09/01 07:15:37;;;;;;;4.70;2.10;;;;;;;21.67;47.06;101480.22;6180085;23;20265;-61
2021/09/01 07:18:03;;;;;;;6.43;2.10;;;;;;;21.69;47.21;101480.56;6180026;23;20185;-61
2021/09/01 07:20:29;;;;;;;5.13;2.10;;;;;;;21.75;47.08;101487.06;6179687;23;20153;-60
2021/09/01 07:22:54;;;;;;;3.30;1.90;;;;;;;21.81;47.32;101482.28;6180042;23;20153;-60
2021/09/01 07:25:20;;;;;;;2.90;1.87;;;;;;;21.85;46.99;101494.16;6179997;23;20272;-60
2021/09/01 07:27:45;;;;;;;2.67;1.77;;;;;;;21.99;46.61;101490.50;6179974;23;20503;-60
2021/09/01 07:30:11;;;;;;;4.53;1.83;;;;;;;21.93;46.69;101478.34;6179046;23;20149;-60
2021/09/01 07:32:36;;;;;;;4.60;1.80;;;;;;;21.99;46.90;101480.00;6180387;23;20227;-61
2021/09/01 07:35:02;;;;;;;3.03;1.90;;;;;;;22.13;46.38;101484.03;6178884;23;20199;-60
2021/09/01 07:37:28;;;;;;;4.90;1.80;;;;;;;22.10;46.66;101485.81;6180407;23;20165;-61
2021/09/01 07:39:54;;;;;;;4.83;1.83;;;;;;;22.28;46.42;101488.38;6178898;23;20160;-60
2021/09/01 07:42:19;;;;;;;1.83;1.60;;;;;;;22.31;45.84;101495.84;6179504;23;20631;-61
2021/09/01 07:44:45;;;;;;;2.77;1.80;;;;;;;22.41;46.09;101499.34;6178861;23;20153;-60
2021/09/01 07:47:11;;;;;;;2.40;1.70;;;;;;;22.40;44.90;101490.09;6179402;23;20719;-60
2021/09/01 07:49:36;;;;;;;5.30;1.57;;;;;;;22.28;44.96;101471.44;6178875;23;20157;-61
2021/09/01 07:52:02;;;;;;;4.30;1.57;;;;;;;22.42;44.44;101483.94;6179218;23;20184;-60
2021/09/01 07:54:28;;;;;;;1.77;1.40;;;;;;;22.53;43.44;101481.28;6179492;23;20183;-60
2021/09/01 07:56:54;;;;;;;3.30;1.70;;;;;;;22.69;43.99;101506.16;6179571;23;20165;-60
2021/09/01 07:59:19;;;;;;;1.77;1.30;;;;;;;22.55;43.83;101464.63;6179289;23;20516;-61
2021/09/01 08:01:45;;;;;;;4.67;1.37;;;;;;;22.87;43.72;101491.75;6179001;23;20153;-60
2021/09/01 08:04:10;;;;;;;4.07;1.47;;;;;;;22.85;43.47;101509.19;6152102;23;20189;-60
2021/09/01 08:06:36;;;;;;;1.80;1.50;;;;;;;22.84;43.21;101515.31;6179161;23;20184;-60
2021/09/01 08:09:01;;;;;;;2.30;1.50;;;;;;;22.65;43.56;101472.47;6178915;23;20148;-60
2021/09/01 08:11:27;;;;;;;3.73;1.50;;;;;;;22.97;42.96;101495.97;6178423;23;20153;-60
2021/09/01 08:13:52;;;;;;;4.40;1.73;;;;;;;23.02;43.43;101512.97;6179093;23;20537;-59
2021/09/01 08:16:18;;;;;;;2.93;1.80;;;;;;;23.15;43.27;101496.41;6178844;23;20622;-60
2021/09/01 08:18:44;;;;;;;4.10;1.77;;;;;;;23.31;42.85;101507.16;6178160;23;20149;-61
2021/09/01 08:21:09;;;;;;;6.07;1.80;;;;;;;23.30;42.21;101507.66;6179309;23;20240;-60
2021/09/01 08:23:35;;;;;;;3.33;1.40;;;;;;;23.31;42.16;101504.31;6178097;23;20163;-60
2021/09/01 08:26:00;;;;;;;1.80;1.30;;;;;;;23.39;41.70;101496.16;6179317;23;20631;-60
2021/09/01 08:28:26;;;;;;;3.43;1.53;;;;;;;23.56;41.83;101505.56;6177560;23;20203;-60
2021/09/01 08:30:51;;;;;;;3.63;1.50;;;;;;;23.58;41.77;101503.81;6165664;23;20211;-60
2021/09/01 08:33:17;;;;;;;2.83;1.53;;;;;;;23.15;41.31;101447.56;6172916;23;20490;-60
2021/09/01 08:35:42;;;;;;;2.73;1.60;;;;;;;23.33;42.04;101473.47;6177719;23;20176;-60
2021/09/01 08:38:08;;;;;;;2.33;1.60;;;;;;;23.27;41.71;101472.66;6168740;23;20219;-60
2021/09/01 08:40:34;;;;;;;4.87;1.63;;;;;;;23.37;41.74;101473.25;6177857;23;20157;-60
2021/09/01 08:43:00;;;;;;;4.57;1.60;;;;;;;23.86;41.76;101513.31;6176574;23;20246;-60
2021/09/01 08:45:26;;;;;;;1.93;1.47;;;;;;;23.72;40.85;101479.47;6177445;23;20184;-61
2021/09/01 08:47:52;;;;;;;2.47;1.50;;;;;;;24.21;40.36;101505.31;6168304;23;20168;-60
2021/09/01 08:50:18;;;;;;;2.53;1.70;;;;;;;24.60;40.36;101522.56;6175122;23;20606;-61
2021/09/01 08:52:43;;;;;;;1.77;1.30;;;;;;;24.58;40.34;101520.28;6162905;23;20157;-60
2021/09/01 08:55:28;;;;;;;3.00;1.60;;;;;;;24.64;40.78;101515.41;6168136;23;20173;-63
2021/09/01 08:57:53;;;;;;;2.57;1.50;;;;;;;24.75;40.02;101514.66;6176238;23;20192;-61
2021/09/01 09:00:19;;;;;;;2.50;1.53;;;;;;;24.67;40.48;101502.28;6178508;23;20157;-61
2021/09/01 09:03:00;;;;;;;1.73;1.20;;;;;;;24.68;39.52;101527.28;6178674;23;20149;-61
2021/09/01 09:05:31;;;;;;;2.20;1.43;;;;;;;24.51;40.10;101520.69;6178334;23;20160;-61
2021/09/01 09:07:57;;;;;;;3.50;1.37;;;;;;;24.40;39.84;101525.53;6177506;23;20232;-60
2021/09/01 09:10:30;;;;;;;3.03;1.17;;;;;;;24.43;39.85;101513.97;6174005;23;20439;-60
2021/09/01 09:12:58;;;;;;;1.90;1.20;;;;;;;24.39;40.09;101489.97;6174839;23;20215;-59
2021/09/01 09:15:24;;;;;;;4.77;1.20;;;;;;;24.75;39.51;101523.16;6179017;23;20183;-60
2021/09/01 09:17:49;;;;;;;2.27;1.27;;;;;;;24.96;38.82;101530.19;6179307;23;20157;-60
2021/09/01 09:20:14;;;;;;;3.03;1.37;;;;;;;24.67;38.35;101454.84;6179700;23;20156;-61
2021/09/01 09:22:41;;;;;;;1.40;1.00;;;;;;;25.29;37.39;101516.91;6178567;23;20149;-60
2021/09/01 09:25:18;;;;;;;8.87;1.27;;;;;;;24.93;38.42;101522.72;6175296;23;20752;-60
2021/09/01 09:27:45;;;;;;;2.80;1.10;;;;;;;25.06;38.54;101532.31;6178451;23;20152;-60
2021/09/01 09:30:20;;;;;;;3.27;1.00;;;;;;;25.38;37.38;101516.66;6179766;23;20236;-60
2021/09/01 09:33:02;;;;;;;4.17;1.10;;;;;;;25.58;37.60;101521.34;6179180;23;20149;-61
2021/09/01 09:35:48;;;;;;;2.10;1.10;;;;;;;25.23;37.66;101521.78;6178720;23;20175;-61
2021/09/01 09:38:15;;;;;;;2.17;1.03;;;;;;;24.77;38.50;101512.09;6174432;23;20157;-60
2021/09/01 09:40:40;;;;;;;3.13;1.30;;;;;;;24.80;38.70;101526.03;6153364;23;20577;-61
2021/09/01 09:43:17;;;;;;;2.50;1.10;;;;;;;25.13;38.64;101526.13;6178965;23;20153;-61
2021/09/01 09:45:45;;;;;;;5.23;1.00;;;;;;;25.11;38.68;101510.91;6179387;23;20189;-61
2021/09/01 09:48:12;;;;;;;2.43;1.30;;;;;;;25.21;38.13;101513.00;6152695;23;20210;-60
2021/09/01 09:50:46;;;;;;;1.70;1.20;;;;;;;25.10;38.28;101469.66;6179165;23;20161;-61
2021/09/01 09:53:11;;;;;;;1.80;1.27;;;;;;;25.04;38.81;101466.03;6179638;23;20168;-61
2021/09/01 09:55:37;;;;;;;1.87;1.23;;;;;;;25.54;37.80;101518.75;6179001;23;20181;-61
2021/09/01 09:58:04;;;;;;;2.60;1.20;;;;;;;25.41;37.85;101500.69;6179477;23;20153;-62
2021/09/01 10:00:30;;;;;;;2.20;1.10;;;;;;;25.70;37.17;101509.47;6178584;23;20622;-61
2021/09/01 10:02:56;;;;;;;4.63;1.40;;;;;;;25.50;38.27;101480.56;6178728;23;20184;-61
2021/09/01 10:05:24;;;;;;;3.40;1.37;;;;;;;25.69;38.04;101522.13;6178293;23;20187;-61
2021/09/01 10:07:50;;;;;;;1.87;1.30;;;;;;;25.90;37.14;101509.19;6179920;23;20612;-61
2021/09/01 10:10:17;;;;;;;1.60;1.33;;;;;;;26.24;37.12;101510.75;6181539;23;20149;-61
2021/09/01 10:12:45;;;;;;;2.53;1.40;;;;;;;26.02;37.23;101479.53;6180873;23;20619;-61
2021/09/01 10:15:27;;;;;;;2.33;1.30;;;;;;;26.35;37.02;101515.63;6180225;23;20187;-61
2021/09/01 10:17:58;;;;;;;4.63;1.60;;;;;;;25.98;37.51;101498.91;6180806;23;20570;-62
2021/09/01 10:20:25;;;;;;;2.80;1.40;;;;;;;25.31;38.10;101477.47;6181848;23;20153;-61
2021/09/01 10:23:05;;;;;;;5.47;1.73;;;;;;;25.22;38.37;101530.78;6180848;23;20155;-61
2021/09/01 10:25:50;;;;;;;3.17;1.50;;;;;;;25.54;38.86;101515.91;6170666;23;20164;-61
2021/09/01 10:28:22;;;;;;;3.90;1.63;;;;;;;25.85;37.96;101537.63;6180291;23;20137;-61
2021/09/01 10:31:09;;;;;;;3.37;1.70;;;;;;;25.60;37.90;101527.28;6181495;23;20603;-61
2021/09/01 10:33:36;;;;;;;4.13;1.80;;;;;;;25.33;38.27;101534.47;6179657;23;20145;-61
2021/09/01 10:36:27;;;;;;;4.30;2.83;;;;;;;25.18;38.06;101533.13;6154457;23;20161;-61
2021/09/01 10:38:56;;;;;;;5.83;3.43;;;;;;;24.51;38.73;101537.69;6180599;23;20153;-61
2021/09/01 10:41:32;;;;;;;8.00;3.90;;;;;;;24.43;39.39;101542.31;6181845;23;20149;-61
2021/09/01 10:44:13;;;;;;;5.33;3.97;;;;;;;24.15;40.21;101560.41;6180333;23;20171;-63
2021/09/01 10:46:50;;;;;;;7.37;3.47;;;;;;;23.86;40.31;101544.44;6181003;23;20224;-61
2021/09/01 10:49:20;;;;;;;4.30;3.63;;;;;;;23.80;41.16;101525.88;6180389;23;20168;-61
2021/09/01 10:51:53;;;;;;;4.73;3.20;;;;;;;23.74;40.87;101548.44;6181394;23;20169;-61
2021/09/01 10:54:34;;;;;;;10.33;2.00;;;;;;;23.63;40.49;101551.19;6180653;23;20180;-61
2021/09/01 10:57:02;;;;;;;11.90;2.27;;;;;;;23.52;41.20;101568.06;6180656;23;20149;-60
2021/09/01 10:59:29;;;;;;;6.20;2.03;;;;;;;23.59;41.08;101542.13;6181384;23;20153;-61
2021/09/01 11:02:13;;;;;;;5.90;3.20;;;;;;;23.78;40.75;101548.22;6180124;23;20227;-61
2021/09/01 11:04:52;;;;;;;4.63;3.50;;;;;;;24.04;40.50;101558.25;6181100;23;20153;-62
2021/09/01 11:07:34;;;;;;;4.57;3.23;;;;;;;24.09;40.26;101551.06;6196032;23;20153;-60
2021/09/01 11:10:01;;;;;;;12.30;3.40;;;;;;;24.06;40.61;101547.19;6182407;23;20244;-64
2021/09/01 11:12:29;;;;;;;11.10;2.40;;;;;;;24.22;40.18;101497.63;6180749;23;20668;-61
2021/09/01 11:14:55;;;;;;;2.63;2.03;;;;;;;24.82;39.93;101560.31;6180181;23;20173;-61
2021/09/01 11:17:22;;;;;;;9.83;2.63;;;;;;;25.00;39.30;101554.19;6180976;23;20153;-61
2021/09/01 11:19:51;;;;;;;4.03;2.00;;;;;;;25.14;38.59;101558.91;6180929;23;20153;-61
2021/09/01 11:22:23;;;;;;;4.37;1.93;;;;;;;24.84;38.72;101495.38;6179887;23;20180;-61
2021/09/01 11:24:52;;;;;;;12.17;2.40;;;;;;;25.41;38.53;101555.38;6180506;23;20184;-61